createdAt,value
2022-10-04T00:04:16.215Z,19.10
2022-10-04T00:09:23.427Z,15.50
2022-10-04T00:14:30.895Z,19.95
2022-10-04T00:25:02.255Z,14.50
2022-10-04T00:30:03.668Z,16.33
2022-10-04T00:35:25.049Z,21.95
2022-10-04T00:40:31.489Z,17.85
2022-10-04T00:45:50.949Z,20.60
2022-10-04T00:51:00.179Z,17.85
2022-10-04T00:56:03.965Z,21.38
2022-10-04T01:01:07.007Z,22.38
2022-10-04T01:06:11.333Z,20.25
2022-10-04T01:11:29.115Z,14.30
2022-10-04T01:21:35.114Z,17.30
2022-10-04T01:26:47.273Z,17.48
2022-10-04T01:31:51.121Z,22.38
2022-10-04T01:36:55.805Z,18.55
2022-10-04T01:42:09.583Z,15.43
2022-10-04T01:47:40.302Z,20.67
2022-10-04T01:52:48.367Z,21.48
2022-10-04T01:57:53.979Z,21.67
2022-10-04T02:03:00.952Z,22.05
2022-10-04T02:08:05.509Z,19.63
2022-10-04T02:13:15.698Z,19.10
2022-10-04T02:18:20.667Z,20.10
2022-10-04T02:23:24.197Z,17.50
2022-10-04T02:28:25.849Z,22.63
2022-10-04T02:33:27.406Z,18.50
2022-10-04T02:38:35.686Z,23.10
2022-10-04T02:43:48.673Z,23.67
2022-10-04T02:48:55.390Z,21.48
2022-10-04T02:54:14.953Z,28.37
2022-10-04T02:59:17.994Z,22.30
2022-10-04T03:04:25.623Z,25.50
2022-10-04T03:09:29.917Z,21.42
2022-10-04T03:14:32.495Z,19.63
2022-10-04T03:19:35.461Z,18.67
2022-10-04T03:24:53.493Z,20.65
2022-10-04T03:29:59.238Z,26.08
2022-10-04T03:35:04.494Z,24.75
2022-10-04T03:40:09.901Z,21.15
2022-10-04T03:45:17.115Z,25.60
2022-10-04T03:50:26.683Z,18.98
2022-10-04T03:55:34.201Z,24.77
2022-10-04T04:00:42.180Z,24.02
2022-10-04T04:05:53.230Z,28.48
2022-10-04T04:11:02.788Z,27.92
2022-10-04T04:16:05.586Z,26.70
2022-10-04T04:21:08.460Z,22.63
2022-10-04T04:26:34.981Z,26.65
2022-10-04T04:31:51.506Z,21.80
2022-10-04T04:36:59.334Z,23.95
2022-10-04T04:42:05.912Z,24.00
2022-10-04T04:47:35.365Z,21.60
2022-10-04T04:52:37.969Z,27.27
2022-10-04T04:57:39.953Z,26.92
2022-10-04T05:02:56.143Z,26.67
2022-10-04T05:08:24.259Z,26.25
2022-10-04T05:13:46.742Z,32.00
2022-10-04T05:18:53.729Z,28.58
2022-10-04T05:23:57.504Z,27.65
2022-10-04T05:29:12.168Z,29.40
2022-10-04T05:34:38.727Z,27.92
2022-10-04T05:39:50.299Z,23.73
2022-10-04T05:44:57.394Z,30.13
2022-10-04T05:50:00.936Z,34.97
2022-10-04T05:55:23.532Z,31.52
2022-10-04T06:00:36.957Z,27.88
2022-10-04T06:05:51.991Z,32.17
2022-10-04T06:11:09.373Z,27.35
2022-10-04T06:16:32.067Z,27.65
2022-10-04T06:22:03.789Z,32.50
2022-10-04T06:27:11.066Z,30.67
2022-10-04T06:32:21.226Z,27.17
2022-10-04T06:38:03.842Z,26.63
2022-10-04T06:43:23.662Z,25.98
2022-10-04T06:48:48.834Z,27.88
2022-10-04T06:54:34.342Z,29.25
2022-10-04T06:59:47.827Z,25.92
2022-10-04T07:05:09.721Z,24.30
2022-10-04T07:10:33.095Z,24.65
2022-10-04T07:15:59.545Z,24.30
2022-10-04T07:21:15.579Z,25.60
2022-10-04T07:26:27.957Z,26.65
2022-10-04T07:31:35.318Z,29.02
2022-10-04T07:36:50.979Z,20.98
2022-10-04T07:41:55.795Z,26.52
2022-10-04T07:47:05.361Z,21.92
2022-10-04T07:52:32.288Z,20.67
2022-10-04T07:58:14.085Z,19.13
2022-10-04T08:03:45.376Z,21.77
2022-10-04T08:09:08.196Z,23.65
2022-10-04T08:14:42.065Z,21.23
2022-10-04T08:20:30.885Z,27.55
2022-10-04T08:25:58.336Z,25.90
2022-10-04T08:31:27.747Z,23.92
2022-10-04T08:36:56.917Z,24.23
2022-10-04T08:42:16.423Z,23.65
2022-10-04T08:47:29.320Z,18.15
2022-10-04T08:52:59.143Z,21.00
2022-10-04T08:58:16.609Z,25.70
2022-10-04T09:03:42.104Z,18.45
2022-10-04T09:09:21.052Z,21.05
2022-10-04T09:14:34.683Z,19.45
2022-10-04T09:19:54.066Z,21.67
2022-10-04T09:25:14.367Z,17.38
2022-10-04T09:30:25.186Z,18.17
2022-10-04T09:35:32.356Z,21.73
2022-10-04T09:40:49.859Z,18.63
2022-10-04T09:46:09.674Z,18.23
2022-10-04T09:51:47.794Z,16.67
2022-10-04T09:57:13.662Z,19.50
2022-10-04T10:03:06.629Z,17.90
2022-10-04T10:08:41.185Z,18.17
2022-10-04T10:14:15.437Z,18.98
2022-10-04T10:19:52.602Z,16.40
2022-10-04T10:25:18.953Z,18.25
2022-10-04T10:30:30.969Z,16.20
2022-10-04T10:36:04.819Z,15.32
2022-10-04T10:41:40.289Z,18.02
2022-10-04T10:46:52.031Z,16.55
2022-10-04T10:51:56.469Z,18.58
2022-10-04T10:57:38.020Z,16.17
2022-10-04T11:03:23.170Z,21.95
2022-10-04T11:09:00.109Z,18.63
2022-10-04T11:14:32.530Z,18.08
2022-10-04T11:19:42.921Z,22.13
2022-10-04T11:24:56.345Z,19.80
2022-10-04T11:30:29.882Z,18.48
2022-10-04T11:35:44.903Z,14.65
2022-10-04T11:41:06.030Z,17.17
2022-10-04T11:46:27.152Z,20.25
2022-10-04T11:52:04.525Z,20.15
2022-10-04T11:57:39.899Z,17.27
2022-10-04T12:03:05.465Z,16.88
2022-10-04T12:08:33.146Z,19.00
2022-10-04T12:13:52.792Z,16.40
2022-10-04T12:19:29.521Z,17.48
2022-10-04T12:24:59.512Z,13.85
2022-10-04T12:30:16.458Z,9.90
2022-10-04T12:35:29.243Z,13.45
2022-10-04T12:40:43.058Z,13.27
2022-10-04T12:46:03.301Z,13.90
2022-10-04T12:51:22.149Z,11.95
2022-10-04T12:56:42.511Z,16.17
2022-10-04T13:02:02.274Z,14.98
2022-10-04T13:07:42.514Z,9.63
2022-10-04T13:13:10.408Z,12.75
2022-10-04T13:18:53.294Z,11.32
2022-10-04T13:24:05.085Z,13.35
2022-10-04T13:29:24.679Z,14.32
2022-10-04T13:34:41.111Z,16.90
2022-10-04T13:39:50.468Z,16.80
2022-10-04T13:45:28.974Z,16.02
2022-10-04T13:50:30.440Z,13.25
2022-10-04T13:56:18.441Z,12.63
2022-10-04T14:02:17.011Z,15.05
2022-10-04T14:12:47.610Z,13.23
2022-10-04T14:18:04.294Z,19.17
2022-10-04T14:23:20.175Z,11.33
2022-10-04T14:28:50.581Z,14.98
2022-10-04T14:34:10.390Z,14.75
2022-10-04T14:39:40.232Z,18.52
2022-10-04T14:45:18.286Z,20.83
2022-10-04T14:50:58.074Z,18.30
2022-10-04T14:56:24.145Z,12.35
2022-10-04T15:01:27.871Z,15.65
2022-10-04T15:06:51.943Z,13.73
2022-10-04T15:12:25.320Z,14.57
2022-10-04T15:17:33.466Z,14.07
2022-10-04T15:22:44.435Z,11.17
2022-10-04T15:27:52.202Z,16.90
2022-10-04T15:33:16.119Z,14.50
2022-10-04T15:39:02.889Z,10.45
2022-10-04T15:44:15.592Z,15.10
2022-10-04T15:49:30.417Z,12.35
2022-10-04T15:54:43.833Z,15.10
2022-10-04T16:00:13.273Z,12.05
2022-10-04T16:05:29.602Z,13.75
2022-10-04T16:11:02.199Z,12.60
2022-10-04T16:16:15.748Z,13.80
2022-10-04T16:21:48.289Z,12.52
2022-10-04T16:26:54.287Z,9.82
2022-10-04T16:32:04.070Z,12.02
2022-10-04T16:37:23.562Z,10.90
2022-10-04T16:42:43.225Z,10.15
2022-10-04T16:47:47.374Z,10.88
2022-10-04T16:52:54.728Z,11.40
2022-10-04T17:03:36.542Z,11.90
2022-10-04T17:08:49.606Z,13.27
2022-10-04T17:13:57.004Z,13.15
2022-10-04T17:19:13.803Z,11.00
2022-10-04T17:24:45.410Z,14.25
2022-10-04T17:30:08.266Z,14.13
2022-10-04T17:35:46.088Z,12.40
2022-10-04T17:40:59.621Z,11.02
2022-10-04T17:46:14.087Z,13.27
2022-10-04T17:51:49.222Z,12.70
2022-10-04T17:56:58.827Z,15.43
2022-10-04T18:02:11.049Z,16.65
2022-10-04T18:07:21.335Z,11.77
2022-10-04T18:12:35.354Z,9.15
2022-10-04T18:17:49.536Z,11.15
2022-10-04T18:22:57.898Z,11.55
2022-10-04T18:28:08.556Z,9.40
2022-10-04T18:33:15.317Z,11.20
2022-10-04T18:38:28.039Z,10.80
2022-10-04T18:43:31.773Z,11.18
2022-10-04T18:48:54.388Z,9.98
2022-10-04T18:54:25.021Z,10.77
2022-10-04T18:59:56.468Z,12.20
2022-10-04T19:05:11.663Z,13.82
2022-10-04T19:10:29.873Z,12.30
2022-10-04T19:15:40.312Z,12.32
2022-10-04T19:20:52.361Z,9.82
2022-10-04T19:26:30.610Z,12.27
2022-10-04T19:31:38.103Z,17.33
2022-10-04T19:37:03.197Z,17.00
2022-10-04T19:42:12.142Z,12.88
2022-10-04T19:47:35.090Z,19.88
2022-10-04T19:52:53.337Z,14.98
2022-10-04T19:58:06.552Z,12.35
2022-10-04T20:03:14.860Z,15.50
2022-10-04T20:09:00.720Z,17.98
2022-10-04T20:14:10.102Z,14.95
2022-10-04T20:19:27.591Z,15.20
2022-10-04T20:24:38.266Z,11.52
2022-10-04T20:29:39.651Z,10.82
2022-10-04T20:34:41.962Z,11.32
2022-10-04T20:39:43.377Z,12.45
2022-10-04T20:44:53.822Z,12.38
2022-10-04T20:49:57.759Z,11.73
2022-10-04T20:55:01.665Z,9.15
2022-10-04T21:00:05.676Z,10.13
2022-10-04T21:05:15.233Z,10.30
2022-10-04T21:10:19.966Z,10.57
2022-10-04T21:15:22.555Z,5.15
2022-10-04T21:20:47.993Z,7.97
2022-10-04T21:25:50.381Z,9.73
2022-10-04T21:30:51.908Z,4.40
2022-10-04T21:35:53.359Z,7.82
2022-10-04T21:40:55.963Z,7.80
2022-10-04T21:45:57.565Z,3.72
2022-10-04T21:50:59.061Z,2.20
2022-10-04T21:56:00.612Z,7.38
2022-10-04T22:01:02.087Z,2.45
2022-10-04T22:06:03.577Z,3.13
2022-10-04T22:11:05.112Z,7.10
2022-10-04T22:16:06.959Z,5.45
2022-10-04T22:21:08.504Z,5.55
2022-10-04T22:26:19.199Z,3.92
2022-10-04T22:31:25.550Z,7.45
2022-10-04T22:36:38.227Z,6.03
2022-10-04T22:41:43.622Z,5.97
2022-10-04T22:46:48.722Z,5.30
2022-10-04T22:51:53.013Z,2.38
2022-10-04T22:56:54.460Z,4.03
2022-10-04T23:01:58.697Z,4.97
2022-10-04T23:07:00.139Z,5.10
2022-10-04T23:12:02.152Z,5.25
2022-10-04T23:17:31.646Z,4.97
2022-10-04T23:22:33.171Z,5.50
2022-10-04T23:27:34.960Z,4.45
2022-10-04T23:32:36.440Z,3.65
2022-10-04T23:37:37.962Z,5.25
2022-10-04T23:42:40.060Z,3.55
2022-10-04T23:47:41.558Z,6.28
2022-10-04T23:52:43.251Z,3.55
2022-10-04T23:57:45.114Z,3.40
